Time;durP1;ratioP1;P1;durP2;ratioP2;P2;SDS_P1;SDS_P2;PMS_P1;PMS_P2;Temp;Humidity;BMP_temperature;BMP_pressure;BME280_temperature;BME280_humidity;BME280_pressure;Samples;Min_cycle;Max_cycle;Signal;HPM_P1;HPM_P2
2021/10/15 00:02:26;;;;;;;;;;;;;;;9.49;70.23;102116.61;1839944;78;20436;-60
2021/10/15 00:04:54;;;;;;;;;;;;;;;9.50;70.34;102105.64;1839960;78;20149;-60
2021/10/15 00:07:22;;;;;;;;;;;;;;;9.48;70.52;102095.17;1839985;78;20165;-59
2021/10/15 00:09:50;;;;;;;;;;;;;;;9.46;70.65;102092.55;1839965;78;20119;-59
2021/10/15 00:12:17;;;;;;;;;;;;;;;9.45;70.76;102097.83;1839977;78;20106;-59
2021/10/15 00:14:45;;;;;;;;;;;;;;;9.43;70.63;102098.30;1840060;78;20153;-59
2021/10/15 00:17:13;;;;;;;;;;;;;;;9.41;70.56;102090.87;1839971;78;20119;-59
2021/10/15 00:19:40;;;;;;;;;;;;;;;9.37;70.48;102088.73;1840011;78;20122;-59
2021/10/15 00:22:08;;;;;;;;;;;;;;;9.35;70.48;102083.05;1839898;78;20106;-60
2021/10/15 00:24:36;;;;;;;;;;;;;;;9.29;70.43;102085.30;1839941;78;20153;-59
2021/10/15 00:27:04;;;;;;;;;;;;;;;9.22;70.43;102083.22;1839902;78;20149;-59
2021/10/15 00:29:32;;;;;;;;;;;;;;;9.17;70.42;102092.05;1839925;78;20491;-59
2021/10/15 00:32:00;;;;;;;;;;;;;;;9.11;70.49;102087.73;1839944;78;20114;-58
2021/10/15 00:34:28;;;;;;;;;;;;;;;9.07;70.60;102088.63;1839978;78;20118;-59
2021/10/15 00:36:56;;;;;;;;;;;;;;;9.06;70.58;102085.59;1839896;78;20118;-59
2021/10/15 00:39:24;;;;;;;;;;;;;;;9.03;70.75;102085.16;1839942;78;20153;-59
2021/10/15 00:41:51;;;;;;;;;;;;;;;8.99;70.95;102087.86;1839860;78;20161;-60
2021/10/15 00:44:19;;;;;;;;;;;;;;;8.96;70.96;102078.23;1839969;78;20110;-59
2021/10/15 00:46:47;;;;;;;;;;;;;;;8.97;70.95;102072.55;1839940;78;20149;-60
2021/10/15 00:49:15;;;;;;;;;;;;;;;8.98;71.03;102076.48;1839937;78;20153;-59
2021/10/15 00:51:44;;;;;;;;;;;;;;;9.00;71.05;102079.06;1839869;78;20352;-59
2021/10/15 00:54:14;;;;;;;;;;;;;;;9.01;71.17;102083.45;1839903;78;20388;-59
2021/10/15 00:56:45;;;;;;;;;;;;;;;9.01;71.21;102082.14;1833488;77;20428;-59
2021/10/15 00:59:13;;;;;;;;;;;;;;;9.05;71.19;102077.27;1832028;78;20131;-59
2021/10/15 01:01:41;;;;;;;;;;;;;;;9.10;71.05;102070.66;1832133;78;20149;-59
2021/10/15 01:04:09;;;;;;;;;;;;;;;9.12;71.16;102073.69;1832052;78;20149;-59
2021/10/15 01:06:37;;;;;;;;;;;;;;;9.13;71.14;102074.55;1832269;77;20149;-59
2021/10/15 01:09:06;;;;;;;;;;;;;;;9.13;71.11;102069.29;1832048;78;20173;-58
2021/10/15 01:11:34;;;;;;;;;;;;;;;9.13;71.02;102067.55;1832019;78;20119;-59
2021/10/15 01:14:03;;;;;;;;;;;;;;;9.13;71.02;102071.50;1832277;78;20147;-59
2021/10/15 01:16:33;;;;;;;;;;;;;;;9.13;70.91;102070.61;1832323;76;20540;-59
2021/10/15 01:19:02;;;;;;;;;;;;;;;9.13;71.10;102068.88;1832077;78;20487;-59
2021/10/15 01:21:30;;;;;;;;;;;;;;;9.11;71.13;102062.77;1831996;77;20356;-60
2021/10/15 01:23:58;;;;;;;;;;;;;;;9.08;71.21;102061.48;1832126;78;20115;-60
2021/10/15 01:26:27;;;;;;;;;;;;;;;9.04;71.38;102062.41;1832077;78;20147;-59
2021/10/15 01:28:55;;;;;;;;;;;;;;;8.99;71.22;102052.39;1832065;78;20115;-59
2021/10/15 01:31:23;;;;;;;;;;;;;;;8.95;71.15;102049.38;1832076;78;20149;-59
2021/10/15 01:33:51;;;;;;;;;;;;;;;8.89;71.18;102040.67;1832014;78;20122;-61
2021/10/15 01:36:19;;;;;;;;;;;;;;;8.86;71.23;102043.32;1831985;78;20110;-60
2021/10/15 01:38:46;;;;;;;;;;;;;;;8.84;71.25;102039.84;1832001;78;20115;-60
2021/10/15 01:41:14;;;;;;;;;;;;;;;8.81;71.21;102039.87;1832068;78;20122;-60
2021/10/15 01:43:42;;;;;;;;;;;;;;;8.74;71.32;102036.87;1832076;78;20149;-59
2021/10/15 01:46:10;;;;;;;;;;;;;;;8.70;71.51;102041.74;1832163;78;20122;-59
2021/10/15 01:48:38;;;;;;;;;;;;;;;8.69;71.52;102045.27;1831954;78;20122;-59
2021/10/15 01:51:06;;;;;;;;;;;;;;;8.64;71.66;102041.36;1832046;78;20149;-59
2021/10/15 01:53:34;;;;;;;;;;;;;;;8.63;71.70;102041.38;1832074;78;20115;-60
2021/10/15 01:56:01;;;;;;;;;;;;;;;8.62;71.80;102040.97;1834373;77;20212;-60
2021/10/15 01:58:29;;;;;;;;;;;;;;;8.60;71.75;102042.28;1839851;78;20127;-60
2021/10/15 02:00:57;;;;;;;;;;;;;;;8.59;71.76;102040.98;1839963;78;20562;-60
2021/10/15 02:03:25;;;;;;;;;;;;;;;8.58;71.86;102044.52;1839891;77;20110;-60
2021/10/15 02:05:53;;;;;;;;;;;;;;;8.53;72.01;102043.23;1840002;78;20122;-60
2021/10/15 02:08:21;;;;;;;;;;;;;;;8.49;72.22;102045.47;1839909;78;20145;-59
2021/10/15 02:10:49;;;;;;;;;;;;;;;8.49;72.07;102050.27;1839919;78;20122;-60
2021/10/15 02:13:17;;;;;;;;;;;;;;;8.48;71.97;102043.71;1839940;78;20147;-60
2021/10/15 02:15:45;;;;;;;;;;;;;;;8.46;72.10;102045.48;1839883;77;20495;-60
2021/10/15 02:18:13;;;;;;;;;;;;;;;8.43;72.11;102041.59;1839852;78;20119;-60
2021/10/15 02:20:40;;;;;;;;;;;;;;;8.43;72.02;102037.66;1839939;78;20153;-60
2021/10/15 02:23:09;;;;;;;;;;;;;;;8.39;72.14;102042.03;1839896;78;20122;-60
2021/10/15 02:25:36;;;;;;;;;;;;;;;8.34;72.17;102041.61;1839886;78;20117;-60
2021/10/15 02:28:05;;;;;;;;;;;;;;;8.29;72.40;102042.98;1839846;77;20148;-61
2021/10/15 02:30:32;;;;;;;;;;;;;;;8.29;72.24;102033.80;1839903;78;20119;-59
2021/10/15 02:33:02;;;;;;;;;;;;;;;8.28;72.10;102027.69;1840023;78;20427;-59
2021/10/15 02:35:29;;;;;;;;;;;;;;;8.27;72.04;102029.01;1840107;78;20110;-60
2021/10/15 02:38:01;;;;;;;;;;;;;;;8.22;72.19;102030.80;1839853;78;20142;-60
2021/10/15 02:40:27;;;;;;;;;;;;;;;8.19;72.43;102028.19;1840203;75;20122;-60
2021/10/15 02:42:56;;;;;;;;;;;;;;;8.15;72.51;102036.52;1839929;78;20479;-60
2021/10/15 02:45:24;;;;;;;;;;;;;;;8.09;72.63;102034.82;1840077;78;20157;-60
2021/10/15 02:47:52;;;;;;;;;;;;;;;8.04;72.78;102033.12;1840068;78;20141;-60
2021/10/15 02:50:19;;;;;;;;;;;;;;;8.00;72.88;102033.58;1840011;78;20122;-59
2021/10/15 02:52:47;;;;;;;;;;;;;;;8.01;72.87;102027.47;1839998;78;20110;-59
2021/10/15 02:55:15;;;;;;;;;;;;;;;7.99;72.96;102028.38;1839937;78;20149;-60
2021/10/15 02:57:43;;;;;;;;;;;;;;;7.97;73.04;102033.63;1839911;76;20110;-60
2021/10/15 03:00:12;;;;;;;;;;;;;;;7.95;73.19;102027.53;1840015;78;20126;-59
2021/10/15 03:02:39;;;;;;;;;;;;;;;7.95;73.14;102012.20;1839986;78;20160;-60
2021/10/15 03:05:07;;;;;;;;;;;;;;;7.96;73.20;102016.13;1840007;78;20111;-60
2021/10/15 03:07:36;;;;;;;;;;;;;;;7.96;73.22;102013.96;1840002;78;20126;-61
2021/10/15 03:10:05;;;;;;;;;;;;;;;7.93;73.29;102014.87;1839986;77;20189;-61
2021/10/15 03:12:33;;;;;;;;;;;;;;;7.93;73.20;102018.80;1839980;78;20380;-60
2021/10/15 03:15:01;;;;;;;;;;;;;;;7.93;72.97;102024.05;1840017;78;20149;-60
2021/10/15 03:17:29;;;;;;;;;;;;;;;7.92;72.79;102022.30;1840007;78;20119;-60
2021/10/15 03:19:57;;;;;;;;;;;;;;;7.90;72.72;102022.75;1839957;78;20119;-60
2021/10/15 03:22:24;;;;;;;;;;;;;;;7.88;72.78;102022.75;1839922;78;20151;-60
2021/10/15 03:24:52;;;;;;;;;;;;;;;7.85;72.93;102029.77;1839995;78;20162;-60
2021/10/15 03:27:20;;;;;;;;;;;;;;;7.82;73.01;102028.05;1839937;78;20145;-60
2021/10/15 03:29:48;;;;;;;;;;;;;;;7.81;72.96;102020.20;1839992;78;20152;-60
2021/10/15 03:32:16;;;;;;;;;;;;;;;7.82;72.85;102008.80;1839995;78;20146;-59
2021/10/15 03:34:44;;;;;;;;;;;;;;;7.82;72.74;102007.50;1839951;78;20126;-61
2021/10/15 03:37:12;;;;;;;;;;;;;;;7.82;72.75;102011.02;1839932;78;20165;-60
2021/10/15 03:39:39;;;;;;;;;;;;;;;7.85;72.84;102017.97;1840030;77;20110;-60
2021/10/15 03:42:07;;;;;;;;;;;;;;;7.84;72.83;102014.91;1840064;77;20122;-59
2021/10/15 03:44:35;;;;;;;;;;;;;;;7.85;72.80;102010.10;1839988;78;20118;-60
2021/10/15 03:47:03;;;;;;;;;;;;;;;7.85;72.69;102014.04;1839972;77;20169;-60
2021/10/15 03:49:31;;;;;;;;;;;;;;;7.84;72.63;102010.55;1839883;78;20110;-60
2021/10/15 03:51:59;;;;;;;;;;;;;;;7.85;72.57;102010.10;1839994;78;20118;-60
2021/10/15 03:54:27;;;;;;;;;;;;;;;7.84;72.67;102016.22;1839972;78;20122;-60
2021/10/15 03:56:55;;;;;;;;;;;;;;;7.99;73.18;102006.08;1839220;77;20126;-60
2021/10/15 03:59:28;;;;;;;;;;;;;;;8.12;73.09;102008.57;1832646;75;20204;-60
2021/10/15 04:01:55;;;;;;;;;;;;;;;8.30;73.19;102010.17;1860943;77;20126;-61
2021/10/15 04:04:23;;;;;;;;;;;;;;;8.39;72.93;102009.64;1864603;77;20428;-60
2021/10/15 04:06:51;;;;;;;;;;;;;;;8.85;73.58;102012.70;1864643;77;20149;-60
2021/10/15 04:09:19;;;;;;;;;;;;;;;9.45;74.36;102014.55;1864615;77;20373;-60
2021/10/15 04:11:46;;;;;;;;;;;;;;;9.99;74.87;102016.37;1864619;77;20122;-60
2021/10/15 04:14:14;;;;;;;;;;;;;;;10.11;74.17;102014.45;1864631;76;20152;-60
2021/10/15 04:16:42;;;;;;;;;;;;;;;9.94;73.82;102014.70;1864520;77;20150;-61
2021/10/15 04:19:10;;;;;;;;;;;;;;;9.73;73.70;102011.98;1864596;76;20145;-60
2021/10/15 04:21:38;;;;;;;;;;;;;;;10.00;74.41;102012.00;1864609;77;20188;-60
2021/10/15 04:24:05;;;;;;;;;;;;;;;10.06;74.09;102011.89;1864628;77;20149;-61
2021/10/15 04:26:33;;;;;;;;;;;;;;;10.07;74.28;102013.64;1864779;77;20161;-60
2021/10/15 04:29:01;;;;;;;;;;;;;;;10.05;73.98;102018.03;1864531;77;20123;-62
2021/10/15 04:31:29;;;;;;;;;;;;;;;9.91;73.84;102013.01;1864605;77;20126;-60
2021/10/15 04:33:56;;;;;;;;;;;;;;;9.84;73.82;102015.31;1864607;77;20118;-60
2021/10/15 04:36:24;;;;;;;;;;;;;;;9.71;73.69;102015.08;1864598;77;20162;-60
2021/10/15 04:38:52;;;;;;;;;;;;;;;9.56;73.67;102015.72;1864567;77;20149;-60
2021/10/15 04:41:20;;;;;;;;;;;;;;;9.51;73.64;102014.91;1864719;77;20123;-60
2021/10/15 04:43:47;;;;;;;;;;;;;;;9.45;73.62;102016.33;1864537;77;20106;-60
2021/10/15 04:46:15;;;;;;;;;;;;;;;9.43;73.59;102014.17;1864628;77;20122;-60
2021/10/15 04:48:43;;;;;;;;;;;;;;;9.42;73.55;102021.61;1864565;77;20192;-60
2021/10/15 04:51:11;;;;;;;;;;;;;;;9.43;73.50;102018.97;1864589;77;20148;-61
2021/10/15 04:53:38;;;;;;;;;;;;;;;9.51;73.44;102022.80;1864585;77;20118;-60
2021/10/15 04:56:06;;;;;;;;;;;;;;;9.55;73.47;102015.28;1864523;77;20130;-62
2021/10/15 04:58:34;;;;;;;;;;;;;;;9.63;73.32;102021.32;1864655;77;20220;-60
2021/10/15 05:01:02;;;;;;;;;;;;;;;9.73;73.26;102023.81;1856706;77;20153;-61
2021/10/15 05:03:30;;;;;;;;;;;;;;;9.80;73.10;102026.32;1832198;77;20142;-60
2021/10/15 05:05:58;;;;;;;;;;;;;;;9.91;72.93;102026.16;1832106;77;20153;-60
2021/10/15 05:08:33;;;;;;;;;;;;;;;9.98;72.87;102019.91;1792324;74;20123;-60
2021/10/15 05:11:00;;;;;;;;;;;;;;;10.08;72.75;102017.13;1791835;80;20432;-60
2021/10/15 05:13:28;;;;;;;;;;;;;;;10.17;72.64;102013.03;1793387;80;20122;-60
2021/10/15 05:15:56;;;;;;;;;;;;;;;10.27;72.46;102021.17;1793377;80;20173;-60
2021/10/15 05:18:23;;;;;;;;;;;;;;;10.45;72.32;102025.28;1793332;80;20113;-60
2021/10/15 05:20:51;;;;;;;;;;;;;;;10.73;72.19;102019.50;1793344;79;20152;-61
2021/10/15 05:23:19;;;;;;;;;;;;;;;11.09;71.99;102021.86;1793316;80;20126;-60
2021/10/15 05:25:47;;;;;;;;;;;;;;;11.37;71.52;102020.81;1793405;79;20121;-61
2021/10/15 05:28:15;;;;;;;;;;;;;;;11.49;71.09;102018.38;1793382;80;20134;-60
2021/10/15 05:30:43;;;;;;;;;;;;;;;11.81;70.87;102023.35;1793380;80;20160;-60
2021/10/15 05:33:10;;;;;;;;;;;;;;;12.21;70.40;102010.53;1793384;80;20125;-60
2021/10/15 05:35:38;;;;;;;;;;;;;;;12.26;70.03;102007.30;1793334;80;20121;-61
2021/10/15 05:38:06;;;;;;;;;;;;;;;12.51;69.75;102009.31;1793327;80;20196;-61
2021/10/15 05:40:34;;;;;;;;;;;;;;;12.83;69.69;102011.52;1793347;80;20117;-60
2021/10/15 05:43:02;;;;;;;;;;;;;;;13.18;69.14;102014.92;1793366;80;20150;-60
2021/10/15 05:45:30;;;;;;;;;;;;;;;13.35;69.32;102010.02;1793371;80;20152;-60
2021/10/15 05:47:58;;;;;;;;;;;;;;;13.37;68.13;102017.47;1793380;80;20125;-61
2021/10/15 05:50:28;;;;;;;;;;;;;;;13.61;67.97;102017.60;1793286;80;20109;-61
2021/10/15 05:53:01;;;;;;;;;;;;;;;13.59;67.48;102023.41;1793492;80;20121;-60
2021/10/15 06:00:55;;;;;;;;;;;;;;;12.85;67.77;102018.48;1793264;80;20129;-60
2021/10/15 06:03:23;;;;;;;;;;;;;;;13.02;67.53;102016.70;1793380;80;20188;-60
2021/10/15 06:10:53;;;;;;;;;;;;;;;13.60;65.46;102008.80;1803624;79;20138;-60
2021/10/15 06:16:10;;;;;;;;;;;;;;;14.67;63.73;101998.19;1799240;80;20145;-60
2021/10/15 06:18:38;;;;;;;;;;;;;;;14.92;63.40;102002.14;1799667;78;20126;-61
2021/10/15 06:21:05;;;;;;;;;;;;;;;15.15;62.91;102009.69;1799169;80;20590;-60
2021/10/15 06:23:34;;;;;;;;;;;;;;;15.40;62.81;102000.30;1799189;80;20180;-61
2021/10/15 06:26:02;;;;;;;;;;;;;;;15.73;62.00;102004.75;1799177;80;20122;-60
2021/10/15 06:28:30;;;;;;;;;;;;;;;15.97;61.95;101999.37;1799188;80;20152;-61
2021/10/15 06:30:58;;;;;;;;;;;;;;;16.33;61.23;101996.09;1799315;80;20130;-60
2021/10/15 06:33:25;;;;;;;;;;;;;;;16.66;60.75;101984.91;1799194;80;20157;-60
2021/10/15 06:35:53;;;;;;;;;;;;;;;17.03;60.09;101981.46;1799184;80;20177;-60
2021/10/15 06:38:21;;;;;;;;;;;;;;;17.50;59.11;101980.13;1799116;80;20110;-60
2021/10/15 06:40:49;;;;;;;;;;;;;;;17.74;58.01;101988.27;1799150;80;20150;-60
2021/10/15 06:43:17;;;;;;;;;;;;;;;18.02;57.51;101983.38;1799215;80;20122;-60
2021/10/15 06:45:44;;;;;;;;;;;;;;;18.20;55.68;101993.58;1799222;79;20167;-60
2021/10/15 06:48:12;;;;;;;;;;;;;;;18.14;56.63;101982.28;1799212;80;20122;-60
2021/10/15 06:50:40;;;;;;;;;;;;;;;18.05;55.48;101976.09;1799179;80;20114;-61
2021/10/15 06:53:09;;;;;;;;;;;;;;;17.35;55.67;101976.41;1799262;80;20145;-61
2021/10/15 06:55:37;;;;;;;;;;;;;;;16.63;56.31;101976.59;1798185;80;20126;-60
2021/10/15 06:58:05;;;;;;;;;;;;;;;16.00;57.42;101974.02;1799308;80;20154;-61
2021/10/15 07:00:33;;;;;;;;;;;;;;;15.28;58.31;101974.27;1799149;80;20174;-61
2021/10/15 07:03:01;;;;;;;;;;;;;;;14.87;59.16;101968.30;1799169;80;20118;-61
2021/10/15 07:05:28;;;;;;;;;;;;;;;14.81;59.62;101968.50;1799122;80;20157;-60
2021/10/15 07:07:56;;;;;;;;;;;;;;;14.74;59.85;101967.88;1801664;79;20125;-60
2021/10/15 07:10:25;;;;;;;;;;;;;;;14.46;60.33;101966.67;1809603;79;20160;-60
2021/10/15 07:12:53;;;;;;;;;;;;;;;14.09;60.92;101965.28;1809609;79;20176;-60
2021/10/15 07:15:21;;;;;;;;;;;;;;;13.95;61.55;101967.09;1809613;79;20426;-60
2021/10/15 07:17:49;;;;;;;;;;;;;;;14.01;61.73;101968.66;1809520;79;20121;-62
2021/10/15 07:20:17;;;;;;;;;;;;;;;14.20;61.75;101959.18;1809549;79;20157;-60
2021/10/15 07:22:45;;;;;;;;;;;;;;;14.63;61.39;101949.72;1809580;79;20113;-60
2021/10/15 07:25:12;;;;;;;;;;;;;;;15.25;60.57;101938.08;1809561;79;20164;-60
2021/10/15 07:27:40;;;;;;;;;;;;;;;15.41;60.11;101940.53;1809573;79;20110;-60
2021/10/15 07:30:09;;;;;;;;;;;;;;;15.67;59.95;101932.44;1809724;78;20137;-60
2021/10/15 07:32:37;;;;;;;;;;;;;;;15.79;60.12;101934.16;1809495;79;20129;-60
2021/10/15 07:35:05;;;;;;;;;;;;;;;15.74;60.12;101933.47;1809680;79;20126;-60
2021/10/15 07:37:33;;;;;;;;;;;;;;;15.70;60.12;101927.86;1809689;79;20209;-61
2021/10/15 07:40:01;;;;;;;;;;;;;;;15.43;59.76;101928.53;1809675;79;20179;-60
2021/10/15 07:42:29;;;;;;;;;;;;;;;15.23;60.05;101934.19;1809710;79;20152;-61
2021/10/15 07:44:57;;;;;;;;;;;;;;;15.21;60.30;101933.83;1809746;79;20125;-61
2021/10/15 07:47:24;;;;;;;;;;;;;;;15.20;60.43;101933.45;1809685;79;20122;-61
2021/10/15 07:49:52;;;;;;;;;;;;;;;15.03;60.52;101932.31;1809725;79;20156;-60
2021/10/15 07:52:20;;;;;;;;;;;;;;;14.97;60.72;101928.55;1809675;79;20125;-60
2021/10/15 07:54:48;;;;;;;;;;;;;;;15.12;60.91;101927.09;1809679;79;20156;-60
2021/10/15 07:57:16;;;;;;;;;;;;;;;15.24;60.99;101926.61;1809678;79;20148;-60
2021/10/15 07:59:44;;;;;;;;;;;;;;;15.17;60.69;101927.78;1809562;79;20161;-60
2021/10/15 08:02:12;;;;;;;;;;;;;;;15.00;60.88;101928.91;1809755;78;20129;-60
2021/10/15 08:04:41;;;;;;;;;;;;;;;15.01;60.91;101915.59;1809697;79;20120;-60
2021/10/15 08:07:08;;;;;;;;;;;;;;;15.15;60.42;101922.14;1809719;78;20360;-60
2021/10/15 08:09:36;;;;;;;;;;;;;;;15.09;60.36;101923.69;1806184;79;20133;-60
2021/10/15 08:12:05;;;;;;;;;;;;;;;15.14;60.23;101921.73;1804203;78;20161;-61
2021/10/15 08:14:33;;;;;;;;;;;;;;;15.13;60.17;101924.00;1815977;78;20113;-61
2021/10/15 08:17:00;;;;;;;;;;;;;;;15.14;60.33;101923.05;1816052;79;20125;-60
2021/10/15 08:19:28;;;;;;;;;;;;;;;15.14;60.35;101920.40;1815955;79;20156;-61
2021/10/15 08:21:56;;;;;;;;;;;;;;;15.20;60.19;101914.87;1815916;79;20109;-60
2021/10/15 08:24:24;;;;;;;;;;;;;;;15.44;60.03;101909.89;1815914;79;20184;-60
2021/10/15 08:26:52;;;;;;;;;;;;;;;15.86;59.59;101909.98;1815875;79;20109;-60
2021/10/15 08:32:08;;;;;;;;;;;;;;;16.19;59.04;101909.87;1847945;77;20202;-60
2021/10/15 08:34:36;;;;;;;;;;;;;;;16.15;58.69;101912.23;1847988;78;20099;-60
2021/10/15 08:37:04;;;;;;;;;;;;;;;16.02;58.26;101913.71;1847949;77;20127;-60
2021/10/15 08:39:32;;;;;;;;;;;;;;;15.92;58.04;101907.94;1848079;78;20276;-61
2021/10/15 08:42:00;;;;;;;;;;;;;;;15.64;58.61;101916.19;1847982;78;20202;-60
2021/10/15 08:44:32;;;;;;;;;;;;;;;15.42;59.07;101911.75;1847983;77;20119;-61
2021/10/15 08:47:00;;;;;;;;;;;;;;;15.32;59.28;101909.05;1847549;77;20123;-60
2021/10/15 08:49:28;;;;;;;;;;;;;;;15.39;59.63;101910.53;1848163;78;20119;-60
2021/10/15 08:51:56;;;;;;;;;;;;;;;15.47;59.55;101910.69;1847908;78;20218;-61
2021/10/15 08:54:24;;;;;;;;;;;;;;;15.50;59.61;101909.25;1848010;78;20119;-60
2021/10/15 08:56:52;;;;;;;;;;;;;;;15.52;59.73;101900.75;1847992;77;20162;-60
2021/10/15 08:59:22;;;;;;;;;;;;;;;15.74;59.66;101896.77;1847985;77;20144;-61
2021/10/15 09:01:50;;;;;;;;;;;;;;;15.99;59.01;101892.58;1847860;78;20123;-60
2021/10/15 09:04:19;;;;;;;;;;;;;;;16.05;58.82;101894.99;1847970;78;20385;-62
2021/10/15 09:06:48;;;;;;;;;;;;;;;16.33;58.81;101887.98;1847962;78;20406;-60
2021/10/15 09:09:17;;;;;;;;;;;;;;;16.60;58.24;101893.84;1848043;78;20154;-60
2021/10/15 09:11:46;;;;;;;;;;;;;;;16.67;57.88;101881.11;1847360;78;20144;-61
2021/10/15 09:14:18;;;;;;;;;;;;;;;17.02;56.71;101881.75;1847975;78;20385;-61
2021/10/15 09:16:53;;;;;;;;;;;;;;;17.61;55.64;101872.61;1847909;78;20127;-62
2021/10/15 09:19:26;;;;;;;;;;;;;;;18.33;53.98;101866.68;1847980;78;20122;-60
2021/10/15 09:22:14;;;;;;;;;;;;;;;19.35;52.10;101863.70;1847273;78;20147;-61
2021/10/15 09:24:44;;;;;;;;;;;;;;;19.64;51.92;101857.54;1847987;78;20119;-60
2021/10/15 09:27:13;;;;;;;;;;;;;;;20.60;49.73;101854.36;1847893;78;20171;-61
2021/10/15 09:29:45;;;;;;;;;;;;;;;20.31;49.75;101863.77;1836056;78;20119;-60
2021/10/15 09:32:13;;;;;;;;;;;;;;;20.54;49.60;101857.43;1839564;77;20158;-61
2021/10/15 09:34:42;;;;;;;;;;;;;;;20.31;50.26;101854.89;1871208;76;20152;-61
2021/10/15 09:37:14;;;;;;;;;;;;;;;20.59;50.11;101846.81;1813195;79;20120;-61
2021/10/15 09:39:42;;;;;;;;;;;;;;;21.37;49.11;101843.53;1862842;77;20372;-61
2021/10/15 09:42:17;;;;;;;;;;;;;;;22.25;48.42;101838.02;1818786;79;20185;-61
2021/10/15 09:44:45;;;;;;;;;;;;;;;22.90;47.60;101837.75;1861788;77;20153;-61
2021/10/15 09:47:28;;;;;;;;;;;;;;;23.10;46.17;101835.46;1815793;79;20127;-60
2021/10/15 09:50:00;;;;;;;;;;;;;;;23.08;46.03;101830.20;1860438;77;20114;-60
2021/10/15 09:52:32;;;;;;;;;;;;;;;22.70;44.89;101832.53;1812032;78;20154;-61
2021/10/15 09:55:00;;;;;;;;;;;;;;;22.05;45.51;101832.23;1862322;77;20106;-61
2021/10/15 09:57:35;;;;;;;;;;;;;;;21.62;46.62;101829.01;1815522;79;20374;-61
2021/10/15 10:00:05;;;;;;;;;;;;;;;21.24;47.93;101830.59;1859320;77;20126;-60
2021/10/15 10:02:33;;;;;;;;;;;;;;;20.62;49.21;101839.12;1812733;79;20166;-61
2021/10/15 10:05:02;;;;;;;;;;;;;;;20.12;50.49;101832.42;1861251;77;20106;-61
2021/10/15 10:07:30;;;;;;;;;;;;;;;19.90;50.82;101824.41;1814011;79;20119;-60
2021/10/15 10:09:58;;;;;;;;;;;;;;;19.44;50.92;101822.66;1862866;77;20110;-61
2021/10/15 10:12:26;;;;;;;;;;;;;;;19.25;51.35;101826.01;1812113;79;20120;-60
2021/10/15 10:14:54;;;;;;;;;;;;;;;19.05;51.85;101817.82;1861041;77;20133;-61
2021/10/15 10:17:24;;;;;;;;;;;;;;;18.93;52.07;101818.55;1848191;78;20119;-61
2021/10/15 10:19:53;;;;;;;;;;;;;;;18.77;52.05;101814.51;1848230;78;20114;-60
2021/10/15 10:22:23;;;;;;;;;;;;;;;18.63;52.42;101812.63;1848183;78;20146;-60
2021/10/15 10:24:52;;;;;;;;;;;;;;;18.70;52.71;101805.98;1848252;78;20378;-60
2021/10/15 10:27:27;;;;;;;;;;;;;;;18.65;52.78;101814.73;1848233;78;20412;-61
2021/10/15 10:29:55;;;;;;;;;;;;;;;18.46;52.95;101801.55;1848154;78;20377;-61
2021/10/15 10:32:24;;;;;;;;;;;;;;;18.28;53.24;101802.96;1845945;76;20154;-60
2021/10/15 10:34:52;;;;;;;;;;;;;;;18.13;53.48;101803.33;1844716;78;20123;-60
2021/10/15 10:37:21;;;;;;;;;;;;;;;18.22;53.61;101799.76;1844709;78;20111;-61
2021/10/15 10:39:50;;;;;;;;;;;;;;;18.30;53.57;101797.55;1834273;78;20150;-60
2021/10/15 10:42:18;;;;;;;;;;;;;;;18.43;53.45;101786.59;1831433;77;20159;-61
2021/10/15 10:44:51;;;;;;;;;;;;;;;18.48;53.33;101787.20;1833538;78;20123;-61
2021/10/15 10:47:23;;;;;;;;;;;;;;;18.48;53.53;101778.31;1833587;78;20141;-60
2021/10/15 10:52:35;;;;;;;;;;;;;;;18.24;53.68;101779.20;1833539;78;20180;-61
2021/10/15 10:55:04;;;;;;;;;;;;;;;18.18;54.08;101778.22;1833632;77;20498;-61
2021/10/15 10:57:34;;;;;;;;;;;;;;;18.16;54.31;101773.45;1833636;78;20440;-60
2021/10/15 11:00:06;;;;;;;;;;;;;;;18.21;54.44;101778.06;1832926;78;20154;-61
2021/10/15 11:02:35;;;;;;;;;;;;;;;18.24;54.59;101773.42;1827991;78;20191;-60
2021/10/15 11:05:04;;;;;;;;;;;;;;;18.21;54.74;101770.06;1832239;78;20191;-60
2021/10/15 11:07:31;;;;;;;;;;;;;;;18.10;54.97;101767.50;1833537;78;20156;-60
2021/10/15 11:10:01;;;;;;;;;;;;;;;18.03;55.07;101764.77;1833622;78;20111;-61
2021/10/15 11:12:30;;;;;;;;;;;;;;;18.04;55.13;101759.00;1833651;78;20366;-61
2021/10/15 11:15:02;;;;;;;;;;;;;;;18.01;55.37;101753.34;1833647;78;20123;-60
2021/10/15 11:17:31;;;;;;;;;;;;;;;18.01;55.42;101755.16;1833764;78;20355;-60
2021/10/15 11:20:09;;;;;;;;;;;;;;;17.89;55.43;101755.33;1833347;78;20120;-61
2021/10/15 11:22:38;;;;;;;;;;;;;;;17.70;55.95;101758.09;1833686;78;20129;-61
2021/10/15 11:25:06;;;;;;;;;;;;;;;17.50;56.35;101748.48;1833692;78;20112;-61
2021/10/15 11:27:36;;;;;;;;;;;;;;;17.29;56.67;101755.30;1859848;76;20167;-58
2021/10/15 11:30:06;;;;;;;;;;;;;;;17.10;57.02;101755.86;1879611;76;20116;-60
2021/10/15 11:32:41;;;;;;;;;;;;;;;17.33;57.09;101754.67;1879556;76;20223;-61
2021/10/15 11:35:10;;;;;;;;;;;;;;;17.49;56.65;101757.42;1879574;76;20155;-61
2021/10/15 11:37:49;;;;;;;;;;;;;;;17.48;56.42;101761.01;1879578;76;20373;-61
2021/10/15 11:40:27;;;;;;;;;;;;;;;17.41;56.53;101762.27;1879580;76;20356;-60
2021/10/15 11:42:56;;;;;;;;;;;;;;;17.33;56.71;101758.19;1879661;76;20109;-61
2021/10/15 11:45:28;;;;;;;;;;;;;;;17.32;56.73;101755.16;1879593;76;20147;-60
2021/10/15 11:47:57;;;;;;;;;;;;;;;17.33;56.91;101751.53;1879613;76;20112;-60
2021/10/15 11:50:32;;;;;;;;;;;;;;;17.25;57.09;101747.09;1879241;76;20144;-61
2021/10/15 11:53:00;;;;;;;;;;;;;;;17.15;57.24;101747.16;1878320;76;20112;-61
2021/10/15 11:55:31;;;;;;;;;;;;;;;17.09;57.44;101746.14;1879580;76;20117;-60
2021/10/15 11:58:15;;;;;;;;;;;;;;;17.04;57.76;101746.84;1879593;76;20108;-60
2021/10/15 12:01:03;;;;;;;;;;;;;;;17.04;57.79;101742.84;1879531;76;20101;-61
2021/10/15 12:03:32;;;;;;;;;;;;;;;17.00;57.89;101735.96;1879530;76;20176;-61
2021/10/15 12:06:13;;;;;;;;;;;;;;;16.92;58.29;101731.89;1879594;76;20179;-60
2021/10/15 12:08:41;;;;;;;;;;;;;;;16.80;58.59;101732.45;1879640;76;20176;-60
2021/10/15 12:11:27;;;;;;;;;;;;;;;16.76;58.70;101723.76;1879568;76;20156;-61
2021/10/15 12:13:56;;;;;;;;;;;;;;;16.77;58.82;101721.98;1879555;76;20121;-61
2021/10/15 12:16:25;;;;;;;;;;;;;;;16.83;58.78;101712.88;1879758;76;20171;-60
2021/10/15 12:18:57;;;;;;;;;;;;;;;16.84;58.69;101714.13;1879525;76;20124;-61
2021/10/15 12:21:32;;;;;;;;;;;;;;;16.84;58.64;101706.16;1879550;76;20388;-60
2021/10/15 12:24:00;;;;;;;;;;;;;;;16.82;58.79;101704.01;1879565;76;20148;-60
2021/10/15 12:26:29;;;;;;;;;;;;;;;16.85;58.76;101702.53;1876730;76;20160;-61
2021/10/15 12:28:57;;;;;;;;;;;;;;;16.85;58.75;101705.20;1867422;77;20603;-61
2021/10/15 12:31:26;;;;;;;;;;;;;;;16.80;58.66;101700.53;1867441;77;20156;-60
2021/10/15 12:34:01;;;;;;;;;;;;;;;16.79;58.82;101698.83;1867414;77;20113;-60
2021/10/15 12:36:29;;;;;;;;;;;;;;;16.79;58.87;101701.48;1867250;76;20121;-60
2021/10/15 12:39:15;;;;;;;;;;;;;;;16.76;58.98;101698.97;1867362;77;20117;-61
2021/10/15 12:41:43;;;;;;;;;;;;;;;16.74;59.02;101697.72;1867383;77;20109;-60
2021/10/15 12:44:28;;;;;;;;;;;;;;;16.75;59.08;101695.46;1867485;77;20187;-60
2021/10/15 12:46:57;;;;;;;;;;;;;;;16.75;59.13;101699.93;1867441;77;20117;-60
2021/10/15 12:49:25;;;;;;;;;;;;;;;16.70;59.21;101695.30;1867369;77;20490;-62
2021/10/15 12:51:53;;;;;;;;;;;;;;;16.63;59.45;101692.55;1867449;77;20164;-61
2021/10/15 12:54:41;;;;;;;;;;;;;;;16.56;59.63;101687.55;1867390;77;20122;-61
2021/10/15 12:57:13;;;;;;;;;;;;;;;16.52;59.63;101686.42;1867595;77;20414;-61
2021/10/15 12:59:41;;;;;;;;;;;;;;;16.46;59.79;101684.92;1867403;77;20427;-60
2021/10/15 13:02:09;;;;;;;;;;;;;;;16.46;59.93;101680.94;1867308;77;20201;-60
2021/10/15 13:04:38;;;;;;;;;;;;;;;16.46;60.04;101679.61;1867499;77;20148;-60
2021/10/15 13:07:05;;;;;;;;;;;;;;;16.46;60.00;101679.61;1867450;77;20129;-60
2021/10/15 13:09:33;;;;;;;;;;;;;;;16.40;60.19;101678.59;1867557;76;20109;-60